Time;durP1;ratioP1;P1;durP2;ratioP2;P2;SDS_P1;SDS_P2;PMS_P1;PMS_P2;Temp;Humidity;BMP_temperature;BMP_pressure;BME280_temperature;BME280_humidity;BME280_pressure;Samples;Min_cycle;Max_cycle;Signal;HPM_P1;HPM_P2
2023/05/25 00:01:25;;;;;;;4.72;2.60;;;;;;;19.59;54.92;97402.97;10391818;28;20041;-47
2023/05/25 00:06:46;;;;;;;4.57;2.58;;;;;;;19.59;54.84;97404.88;10394044;28;20052;-46
2023/05/25 00:12:06;;;;;;;4.35;2.58;;;;;;;19.58;54.90;97392.47;10401436;28;20038;-49
2023/05/25 00:17:28;;;;;;;4.47;2.60;;;;;;;19.58;54.85;97392.47;10392491;28;20402;-46
2023/05/25 00:22:48;;;;;;;4.97;2.50;;;;;;;19.56;54.85;97398.16;10396258;28;20044;-48
2023/05/25 00:28:07;;;;;;;4.72;2.60;;;;;;;19.55;54.83;97391.97;10400517;28;20049;-46
2023/05/25 00:33:26;;;;;;;3.45;2.20;;;;;;;19.55;54.83;97391.97;10398188;28;20038;-45
2023/05/25 00:38:46;;;;;;;4.60;2.38;;;;;;;19.56;54.79;97392.75;10393457;28;20041;-44
2023/05/25 00:44:07;;;;;;;4.30;2.45;;;;;;;19.55;54.76;97397.38;10394771;28;20490;-49
2023/05/25 00:49:27;;;;;;;4.18;2.58;;;;;;;19.55;54.67;97396.59;10392478;28;20072;-46
2023/05/25 00:54:51;;;;;;;5.20;2.40;;;;;;;19.53;54.74;97394.19;10389823;28;20402;-47
2023/05/25 01:00:12;;;;;;;3.75;2.38;;;;;;;19.53;54.78;97398.81;10376282;28;20053;-47
2023/05/25 01:05:33;;;;;;;3.60;2.30;;;;;;;19.53;54.79;97396.09;10404902;28;20046;-47
2023/05/25 01:10:53;;;;;;;4.50;2.20;;;;;;;19.53;54.79;97398.81;10373592;28;20046;-48
2023/05/25 01:16:14;;;;;;;3.22;2.28;;;;;;;19.52;54.89;97398.00;10398994;28;20046;-47
2023/05/25 01:21:49;;;;;;;3.65;2.00;;;;;;;19.51;54.90;97393.69;10398090;28;20038;-46
2023/05/25 01:27:18;;;;;;;3.40;2.17;;;;;;;19.52;54.83;97399.91;10402923;28;20050;-46
2023/05/25 01:32:39;;;;;;;3.10;2.10;;;;;;;19.51;54.78;97407.22;10393116;28;20046;-47
2023/05/25 01:38:00;;;;;;;3.47;2.20;;;;;;;19.51;54.75;97406.41;10402989;28;20405;-48
2023/05/25 01:43:19;;;;;;;3.45;1.92;;;;;;;19.50;54.84;97400.22;10389462;28;20050;-46
2023/05/25 01:49:11;;;;;;;2.40;1.80;;;;;;;19.49;54.77;97412.13;10394247;28;20042;-49
2023/05/25 01:54:37;;;;;;;3.80;2.13;;;;;;;19.49;54.53;97403.22;10385090;28;20133;-46
2023/05/25 01:59:59;;;;;;;3.30;1.90;;;;;;;19.49;54.64;97403.22;10394378;28;20458;-48
2023/05/25 02:05:21;;;;;;;3.15;2.15;;;;;;;19.48;54.61;97418.66;10393130;28;20050;-46
2023/05/25 02:10:40;;;;;;;2.33;1.83;;;;;;;19.47;54.67;97422.44;10402535;28;20042;-48
2023/05/25 02:16:00;;;;;;;3.75;2.10;;;;;;;19.46;54.56;97420.84;10394198;28;20104;-47
2023/05/25 02:21:19;;;;;;;3.42;1.90;;;;;;;19.46;54.57;97414.66;10393845;28;20048;-49
2023/05/25 02:26:39;;;;;;;4.05;1.90;;;;;;;19.45;54.68;97419.25;10410030;28;20041;-46
2023/05/25 02:31:59;;;;;;;2.42;1.90;;;;;;;19.44;54.58;97423.06;10390178;28;20065;-49
2023/05/25 02:37:18;;;;;;;2.45;1.77;;;;;;;19.44;54.63;97423.06;10389952;28;20050;-46
2023/05/25 02:42:37;;;;;;;4.13;2.17;;;;;;;19.43;54.68;97426.88;10387259;28;20057;-47
2023/05/25 02:47:57;;;;;;;3.03;1.85;;;;;;;19.43;54.69;97429.56;10408067;28;20042;-49
2023/05/25 02:53:17;;;;;;;3.10;1.80;;;;;;;19.43;54.63;97432.28;10385238;28;20053;-48
2023/05/25 02:58:37;;;;;;;2.47;1.80;;;;;;;19.42;54.60;97441.47;10408759;28;20494;-49
2023/05/25 03:04:04;;;;;;;2.38;1.67;;;;;;;19.41;54.46;97445.31;10399344;28;20080;-48
2023/05/25 03:09:28;;;;;;;2.53;1.75;;;;;;;19.40;54.59;97435.59;10390979;28;20049;-47
2023/05/25 03:14:48;;;;;;;2.85;1.88;;;;;;;19.40;54.63;97432.88;10392296;28;20038;-48
2023/05/25 03:20:09;;;;;;;2.58;1.88;;;;;;;19.41;54.55;97437.19;10387518;28;20053;-48
2023/05/25 03:25:32;;;;;;;2.78;1.88;;;;;;;19.40;54.42;97442.91;10373738;28;20057;-48
2023/05/25 03:30:53;;;;;;;2.47;1.60;;;;;;;19.39;54.48;97431.31;10389948;28;20042;-46
2023/05/25 03:36:16;;;;;;;2.85;1.90;;;;;;;19.39;54.48;97436.69;10414370;28;20045;-47
2023/05/25 03:41:35;;;;;;;3.00;1.90;;;;;;;19.37;54.49;97444.31;10386509;28;20045;-48
2023/05/25 03:46:55;;;;;;;1.85;1.60;;;;;;;19.39;54.43;97458.31;10389391;28;20049;-45
2023/05/25 03:52:16;;;;;;;2.75;1.55;;;;;;;19.39;54.54;97450.22;10389603;28;20433;-46
2023/05/25 03:57:35;;;;;;;2.85;1.90;;;;;;;19.38;54.46;97455.91;10390355;28;20042;-46
2023/05/25 04:02:55;;;;;;;2.00;1.60;;;;;;;19.39;54.49;97463.72;10391858;28;20079;-46
2023/05/25 04:08:18;;;;;;;2.40;1.70;;;;;;;19.41;54.46;97474.22;10386512;28;20387;-49
2023/05/25 04:13:39;;;;;;;2.53;1.95;;;;;;;19.40;51.93;97464.50;10410404;28;20067;-50
2023/05/25 04:18:59;;;;;;;6.25;3.25;;;;;;;19.39;49.78;97476.44;10425489;28;20048;-47
2023/05/25 04:24:20;;;;;;;5.80;2.50;;;;;;;19.38;48.94;97472.91;10412786;28;20045;-46
2023/05/25 04:29:40;;;;;;;19.33;4.55;;;;;;;19.08;43.70;97464.41;10411175;28;20047;-47
2023/05/25 04:35:22;;;;;;;15.45;4.80;;;;;;;18.06;42.26;97458.41;10414573;28;20045;-46
2023/05/25 04:40:45;;;;;;;10.00;4.68;;;;;;;17.44;42.27;97464.78;10425289;28;20041;-45
2023/05/25 04:46:06;;;;;;;9.20;4.20;;;;;;;17.68;44.37;97462.00;10415295;28;20053;-48
2023/05/25 04:51:27;;;;;;;13.38;3.63;;;;;;;18.20;45.61;97469.97;10398309;28;20062;-49
2023/05/25 04:56:46;;;;;;;6.97;3.53;;;;;;;18.51;46.96;97482.88;10425134;28;20040;-47
2023/05/25 05:02:07;;;;;;;13.18;3.80;;;;;;;18.68;47.88;97471.47;10420311;28;20049;-49
2023/05/25 05:07:27;;;;;;;12.77;4.70;;;;;;;18.78;48.60;97474.75;10433690;28;20076;-49
2023/05/25 05:12:47;;;;;;;10.48;4.30;;;;;;;18.87;48.92;97476.78;10432076;28;20045;-48
2023/05/25 05:18:08;;;;;;;11.27;4.50;;;;;;;18.93;49.23;97483.66;10430739;28;20087;-47
2023/05/25 05:23:28;;;;;;;12.40;4.35;;;;;;;18.97;49.48;97481.94;10431832;28;20045;-47
2023/05/25 05:28:47;;;;;;;11.25;4.00;;;;;;;19.01;49.54;97491.03;10432679;28;20072;-46
2023/05/25 05:34:07;;;;;;;12.45;4.05;;;;;;;19.04;49.50;97493.13;10433759;28;20049;-47
2023/05/25 05:39:27;;;;;;;10.55;4.15;;;;;;;19.08;49.48;97496.81;10432588;28;20045;-46
2023/05/25 05:44:47;;;;;;;10.77;4.25;;;;;;;19.10;49.39;97500.03;10432224;28;20562;-45
2023/05/25 05:50:07;;;;;;;11.07;4.10;;;;;;;19.14;49.43;97506.41;10427429;28;20056;-47
2023/05/25 05:55:28;;;;;;;11.13;4.50;;;;;;;19.16;49.37;97515.00;10431761;28;20041;-47
2023/05/25 06:00:48;;;;;;;12.05;4.13;;;;;;;19.21;49.60;97521.41;10431703;28;20048;-46
2023/05/25 06:06:08;;;;;;;13.68;4.55;;;;;;;19.23;49.72;97527.28;10417963;28;20049;-46
2023/05/25 06:11:28;;;;;;;13.68;4.72;;;;;;;19.24;49.74;97513.50;10430917;28;20041;-44
2023/05/25 06:16:49;;;;;;;12.35;4.55;;;;;;;19.27;49.85;97520.22;10431072;28;20045;-46
2023/05/25 06:22:10;;;;;;;10.55;4.47;;;;;;;19.30;49.94;97527.69;10403398;28;20097;-47
2023/05/25 06:27:29;;;;;;;12.10;4.55;;;;;;;19.32;50.00;97533.59;10420262;28;20053;-45
2023/05/25 06:32:48;;;;;;;10.05;4.18;;;;;;;19.35;50.10;97535.69;10430406;28;20556;-46
2023/05/25 06:38:10;;;;;;;12.13;4.10;;;;;;;19.38;50.32;97536.97;10430351;28;20045;-46
2023/05/25 06:43:30;;;;;;;9.02;4.28;;;;;;;19.39;50.26;97544.78;10418249;28;20046;-46
2023/05/25 06:49:07;;;;;;;10.02;4.10;;;;;;;19.42;50.38;97537.97;10427787;28;20536;-47
2023/05/25 06:54:26;;;;;;;10.25;3.60;;;;;;;19.44;50.38;97538.44;10418121;28;20445;-48
2023/05/25 06:59:46;;;;;;;7.68;4.05;;;;;;;19.45;50.49;97542.75;10391477;28;20049;-44
2023/05/25 07:05:06;;;;;;;8.75;3.83;;;;;;;19.47;50.72;97535.94;10430379;28;20049;-48
2023/05/25 07:10:26;;;;;;;8.00;4.25;;;;;;;19.49;50.76;97538.34;10430218;28;20046;-46
2023/05/25 07:15:45;;;;;;;7.00;3.58;;;;;;;19.50;50.79;97542.63;10416398;28;20061;-46
2023/05/25 07:21:08;;;;;;;8.52;3.83;;;;;;;19.50;50.88;97546.16;10427804;28;20045;-46
2023/05/25 07:26:32;;;;;;;7.53;3.83;;;;;;;19.52;51.02;97549.34;10429598;28;20052;-47
2023/05/25 07:31:52;;;;;;;6.57;3.33;;;;;;;19.53;51.14;97550.94;10414872;28;20091;-46
2023/05/25 07:37:11;;;;;;;6.70;3.30;;;;;;;19.55;51.19;97553.34;10417040;28;20137;-46
2023/05/25 07:42:33;;;;;;;5.28;3.10;;;;;;;19.55;51.25;97539.81;10428947;28;20045;-48
2023/05/25 07:47:52;;;;;;;6.65;3.50;;;;;;;19.56;51.46;97555.75;10428710;28;20041;-46
2023/05/25 07:53:12;;;;;;;8.23;3.47;;;;;;;19.56;51.53;97550.34;10401622;28;20120;-47
2023/05/25 07:58:32;;;;;;;7.72;3.25;;;;;;;19.60;51.70;97563.22;10428278;28;20049;-46
2023/05/25 08:03:51;;;;;;;5.22;2.83;;;;;;;19.60;51.49;97555.09;10428128;28;20056;-46
2023/05/25 08:09:12;;;;;;;5.10;3.13;;;;;;;19.60;51.61;97557.81;10427934;28;20049;-45
2023/05/25 08:14:31;;;;;;;6.13;3.20;;;;;;;19.61;51.65;97549.41;10417045;28;20401;-45
2023/05/25 08:19:52;;;;;;;6.22;2.97;;;;;;;19.61;51.65;97556.72;10426399;28;20037;-45
2023/05/25 08:25:12;;;;;;;5.53;3.20;;;;;;;19.62;51.82;97555.59;10427425;28;20041;-47
2023/05/25 08:30:32;;;;;;;5.03;2.97;;;;;;;19.63;51.85;97566.13;10427208;28;20045;-45
2023/05/25 08:35:52;;;;;;;6.10;3.00;;;;;;;19.64;51.84;97558.78;10426829;28;20045;-47
2023/05/25 08:41:12;;;;;;;5.85;2.97;;;;;;;19.64;51.90;97569.59;10426995;28;20042;-48
2023/05/25 08:46:31;;;;;;;5.80;2.75;;;;;;;19.63;52.00;97566.13;10426753;28;20052;-45
2023/05/25 08:51:53;;;;;;;4.30;2.65;;;;;;;19.64;52.08;97567.72;10407045;28;20053;-45
2023/05/25 08:57:16;;;;;;;4.25;2.85;;;;;;;19.65;52.23;97574.72;10426587;28;20482;-47
2023/05/25 09:02:49;;;;;;;5.40;2.28;;;;;;;19.65;52.11;97574.72;10425620;28;20088;-45
2023/05/25 09:08:09;;;;;;;4.13;2.25;;;;;;;19.66;52.16;97572.81;10417122;28;20037;-46
2023/05/25 09:13:29;;;;;;;2.95;1.85;;;;;;;19.66;52.22;97570.09;10411682;28;20037;-44
2023/05/25 09:18:49;;;;;;;8.20;3.08;;;;;;;19.67;52.15;97566.31;10424082;28;20050;-45
2023/05/25 09:24:08;;;;;;;6.90;3.45;;;;;;;19.63;51.20;97562.63;10400323;28;20133;-49
2023/05/25 09:29:28;;;;;;;5.57;3.15;;;;;;;19.62;51.92;97564.53;10424986;28;20041;-45
2023/05/25 09:34:48;;;;;;;4.47;2.20;;;;;;;19.62;51.99;97569.94;10425680;28;20049;-46
2023/05/25 09:40:09;;;;;;;4.88;2.15;;;;;;;19.65;52.34;97573.94;10425789;28;20048;-46
2023/05/25 09:45:30;;;;;;;5.25;2.63;;;;;;;19.66;52.48;97564.69;10403743;28;20041;-45
2023/05/25 09:50:50;;;;;;;4.13;1.20;;;;;;;19.65;52.67;97561.19;10426469;28;20080;-46
2023/05/25 09:56:13;;;;;;;2.05;1.20;;;;;;;19.66;53.07;97567.41;10419857;28;20072;-45
2023/05/25 10:01:33;;;;;;;4.22;1.63;;;;;;;19.67;54.04;97566.31;10408517;28;20045;-47
2023/05/25 10:06:55;;;;;;;5.10;2.28;;;;;;;19.65;54.40;97563.91;10432430;28;20037;-46
2023/05/25 10:12:17;;;;;;;5.57;2.38;;;;;;;19.67;55.04;97555.50;10432274;28;20049;-45
2023/05/25 10:17:43;;;;;;;3.65;1.73;;;;;;;19.66;55.67;97549.31;10429869;28;20052;-45
2023/05/25 10:23:10;;;;;;;2.60;1.13;;;;;;;19.67;55.80;97544.69;10431741;28;20037;-44
2023/05/25 10:28:34;;;;;;;5.45;3.80;;;;;;;19.67;56.48;97550.09;10431557;28;20071;-46
2023/05/25 10:33:55;;;;;;;5.30;3.15;;;;;;;19.69;57.14;97547.88;10405889;28;20049;-46
2023/05/25 10:39:14;;;;;;;5.63;3.05;;;;;;;19.69;56.78;97545.97;10430174;28;20037;-47
2023/05/25 10:44:34;;;;;;;4.53;2.63;;;;;;;19.69;56.72;97540.56;10431093;28;20050;-47
2023/05/25 10:49:59;;;;;;;5.78;2.85;;;;;;;19.70;56.53;97541.38;10426634;28;20111;-48
2023/05/25 10:55:19;;;;;;;5.47;2.90;;;;;;;19.70;56.41;97538.69;10407935;28;20049;-46
2023/05/25 11:00:39;;;;;;;4.07;2.40;;;;;;;19.69;56.20;97537.84;10430016;28;20045;-49
2023/05/25 11:05:59;;;;;;;4.10;1.90;;;;;;;19.69;56.13;97528.97;10416552;28;20041;-47
2023/05/25 11:11:18;;;;;;;5.45;2.50;;;;;;;19.68;55.94;97530.88;10419278;28;20103;-47
2023/05/25 11:16:38;;;;;;;2.30;2.00;;;;;;;19.69;55.85;97520.84;10429671;28;20474;-47
2023/05/25 11:22:12;;;;;;;2.80;1.58;;;;;;;19.69;55.87;97524.34;10415203;28;20440;-47
2023/05/25 11:27:31;;;;;;;4.10;2.00;;;;;;;19.69;55.70;97518.16;10418201;28;20049;-46
2023/05/25 11:32:51;;;;;;;5.80;2.08;;;;;;;19.69;55.63;97516.22;10429158;28;20567;-47
2023/05/25 11:38:11;;;;;;;4.75;1.98;;;;;;;19.69;55.57;97510.81;10428889;28;20052;-45
2023/05/25 11:43:32;;;;;;;3.08;2.10;;;;;;;19.70;55.41;97508.94;10414959;28;20053;-46
2023/05/25 11:48:53;;;;;;;3.08;1.90;;;;;;;19.68;55.36;97503.84;10427248;28;20053;-47
2023/05/25 11:54:28;;;;;;;2.50;1.70;;;;;;;19.67;55.19;97494.13;10428209;28;20429;-45
2023/05/25 11:59:52;;;;;;;2.90;1.90;;;;;;;19.65;55.07;97493.63;10413793;28;20048;-46
2023/05/25 12:05:11;;;;;;;3.33;2.10;;;;;;;19.65;55.05;97490.13;10393071;28;20049;-47
2023/05/25 12:10:30;;;;;;;3.17;2.17;;;;;;;19.65;54.83;97490.91;10427474;28;20045;-47
2023/05/25 12:15:51;;;;;;;3.80;2.20;;;;;;;19.64;54.70;97480.41;10427422;28;20041;-47
2023/05/25 12:21:10;;;;;;;3.60;2.22;;;;;;;19.64;54.74;97483.13;10403329;28;20048;-46
2023/05/25 12:26:31;;;;;;;3.83;2.30;;;;;;;19.63;54.59;97478.84;10427217;28;20052;-47
2023/05/25 12:31:50;;;;;;;2.85;1.90;;;;;;;19.63;54.68;97484.25;10426967;28;20048;-50
2023/05/25 12:37:20;;;;;;;2.72;1.85;;;;;;;19.63;54.57;97486.94;10414952;28;20034;-46
2023/05/25 12:42:40;;;;;;;3.88;2.00;;;;;;;19.63;54.66;97484.25;10413642;28;20057;-49
2023/05/25 12:47:59;;;;;;;3.65;2.15;;;;;;;19.63;54.63;97478.84;10422898;28;20046;-50
2023/05/25 12:53:19;;;;;;;2.60;1.92;;;;;;;19.64;54.68;97475.00;10413108;28;20436;-50
2023/05/25 12:58:39;;;;;;;2.55;1.35;;;;;;;19.62;54.68;97467.22;10426599;28;20041;-49
2023/05/25 13:03:59;;;;;;;1.92;1.50;;;;;;;19.62;54.62;97461.00;10426288;28;20042;-49
2023/05/25 13:09:18;;;;;;;3.30;2.10;;;;;;;19.62;54.59;97463.69;10426308;28;20045;-49
2023/05/25 13:14:38;;;;;;;3.13;1.90;;;;;;;19.60;54.66;97455.94;10426320;28;20038;-49
2023/05/25 13:19:58;;;;;;;2.22;1.85;;;;;;;19.62;54.67;97455.59;10413474;28;20060;-47
2023/05/25 13:25:18;;;;;;;2.28;1.70;;;;;;;19.61;54.66;97457.50;10433786;28;20552;-48
2023/05/25 13:30:37;;;;;;;2.20;1.80;;;;;;;19.62;54.88;97455.59;10421193;28;20544;-48
2023/05/25 13:35:57;;;;;;;2.20;1.50;;;;;;;19.61;54.91;97451.31;10433845;28;20037;-47
2023/05/25 13:41:17;;;;;;;2.25;1.65;;;;;;;19.62;54.85;97450.19;10433413;28;20453;-47
2023/05/25 13:46:36;;;;;;;5.05;2.00;;;;;;;19.64;54.62;97454.19;10433054;28;20050;-46
2023/05/25 13:51:56;;;;;;;2.70;2.17;;;;;;;19.66;54.39;97443.06;10423371;28;20060;-48
2023/05/25 13:57:15;;;;;;;3.53;2.05;;;;;;;19.66;53.67;97437.66;10432774;28;20060;-47
2023/05/25 14:02:35;;;;;;;5.30;2.95;;;;;;;19.64;53.48;97440.69;10419117;28;20076;-53
2023/05/25 14:07:55;;;;;;;3.88;2.60;;;;;;;19.63;53.16;97438.28;10432543;28;20061;-54
2023/05/25 14:13:15;;;;;;;5.00;2.83;;;;;;;19.61;52.66;97429.69;10432202;28;20037;-53
2023/05/25 14:18:34;;;;;;;5.88;3.20;;;;;;;19.59;52.48;97432.69;10430979;28;20042;-54
2023/05/25 14:23:53;;;;;;;5.88;3.53;;;;;;;19.59;52.19;97440.81;10431691;28;20060;-57
2023/05/25 14:29:13;;;;;;;7.57;3.50;;;;;;;19.59;52.04;97429.19;10420734;28;20076;-55
2023/05/25 14:34:33;;;;;;;6.50;3.40;;;;;;;19.58;51.93;97428.38;10430922;28;20041;-52
2023/05/25 14:39:52;;;;;;;4.82;3.40;;;;;;;19.57;51.94;97426.81;10404930;28;20375;-56
2023/05/25 14:45:12;;;;;;;5.70;3.33;;;;;;;19.58;51.26;97427.59;10431215;28;20417;-55
2023/05/25 14:50:31;;;;;;;5.35;3.20;;;;;;;19.59;51.16;97429.19;10419416;28;20104;-48
2023/05/25 14:55:51;;;;;;;4.80;3.58;;;;;;;19.59;50.58;97419.19;10412292;28;20053;-48
2023/05/25 15:01:10;;;;;;;5.78;4.07;;;;;;;19.59;50.61;97424.59;10403572;28;20147;-49
2023/05/25 15:06:33;;;;;;;5.50;4.03;;;;;;;19.58;50.37;97420.28;10406548;28;20052;-48
2023/05/25 15:11:52;;;;;;;3.83;3.40;;;;;;;19.59;50.34;97423.78;10429879;28;20037;-50
2023/05/25 15:17:12;;;;;;;5.85;3.75;;;;;;;19.58;50.11;97414.06;10429722;28;20037;-48
2023/05/25 15:22:31;;;;;;;6.47;4.30;;;;;;;19.58;50.08;97416.78;10416079;28;20472;-47
2023/05/25 15:27:50;;;;;;;5.85;4.07;;;;;;;19.56;49.67;97407.09;10429160;28;20047;-49
2023/05/25 15:33:12;;;;;;;6.03;3.83;;;;;;;19.58;50.21;97405.97;10415801;28;20053;-48
2023/05/25 15:38:32;;;;;;;7.55;4.20;;;;;;;19.56;50.22;97403.56;10427656;28;20448;-47
2023/05/25 15:43:56;;;;;;;7.63;4.20;;;;;;;19.56;49.79;97388.19;10418109;28;20562;-48
2023/05/25 15:49:16;;;;;;;8.00;4.60;;;;;;;19.57;49.21;97397.06;10412524;28;20059;-50
2023/05/25 15:54:36;;;;;;;8.88;4.57;;;;;;;19.59;47.53;97405.66;10428222;28;20047;-48
2023/05/25 15:59:55;;;;;;;6.68;4.18;;;;;;;19.59;47.65;97396.78;10417011;28;20033;-52
2023/05/25 16:05:15;;;;;;;7.78;4.47;;;;;;;19.60;46.84;97387.53;10419431;28;20104;-50
2023/05/25 16:10:34;;;;;;;6.53;4.13;;;;;;;19.59;46.51;97400.25;10423922;28;20068;-49
2023/05/25 16:15:54;;;;;;;7.40;4.45;;;;;;;19.60;45.74;97407.28;10414348;28;20080;-50
2023/05/25 16:21:14;;;;;;;7.85;4.50;;;;;;;19.60;46.40;97391.06;10426117;28;20041;-51
2023/05/25 16:26:34;;;;;;;7.53;4.28;;;;;;;19.60;46.95;97392.94;10427315;28;20095;-49
2023/05/25 16:31:54;;;;;;;7.50;4.30;;;;;;;19.59;45.50;97391.38;10414124;28;20076;-50
2023/05/25 16:37:14;;;;;;;6.47;4.05;;;;;;;19.60;45.73;97382.13;10415758;28;20531;-51
2023/05/25 16:42:33;;;;;;;6.88;4.15;;;;;;;19.60;45.89;97387.53;10413348;28;20485;-51
2023/05/25 16:47:53;;;;;;;5.93;4.15;;;;;;;19.58;45.37;97379.72;10426046;28;20046;-58
2023/05/25 16:53:13;;;;;;;8.07;4.53;;;;;;;19.54;43.87;97379.56;10413457;28;20064;-49
2023/05/25 16:58:32;;;;;;;9.38;4.38;;;;;;;19.55;44.69;97374.97;10434433;28;20084;-48
2023/05/25 17:03:51;;;;;;;8.18;4.75;;;;;;;19.56;45.38;97385.47;10434976;28;20049;-47
2023/05/25 17:09:11;;;;;;;8.63;4.18;;;;;;;19.58;45.21;97384.34;10434692;28;20049;-47
2023/05/25 17:14:30;;;;;;;6.30;4.20;;;;;;;19.57;45.40;97383.56;10423983;28;20486;-50
2023/05/25 17:19:49;;;;;;;8.57;4.50;;;;;;;19.55;45.32;97375.75;10430639;28;20037;-47
2023/05/25 17:25:09;;;;;;;8.32;4.57;;;;;;;19.56;45.48;97380.06;10433888;28;20053;-48
2023/05/25 17:30:29;;;;;;;6.30;3.70;;;;;;;19.54;46.03;97379.56;10432785;28;20045;-46
2023/05/25 17:35:49;;;;;;;8.77;3.65;;;;;;;19.55;46.71;97386.56;10424316;28;20034;-49
2023/05/25 17:41:08;;;;;;;6.07;3.70;;;;;;;19.55;47.22;97383.06;10432461;28;20033;-46
2023/05/25 17:46:27;;;;;;;10.98;3.90;;;;;;;19.55;47.77;97383.88;10429175;28;20045;-49
2023/05/25 17:51:47;;;;;;;4.15;3.03;;;;;;;19.56;48.07;97382.78;10408391;28;20057;-48
2023/05/25 17:57:06;;;;;;;6.28;3.38;;;;;;;19.59;48.28;97389.44;10430608;28;20481;-45
2023/05/25 18:02:28;;;;;;;7.95;4.03;;;;;;;19.61;49.00;97400.75;10428432;28;20041;-49
2023/05/25 18:07:48;;;;;;;4.93;2.90;;;;;;;19.62;50.37;97415.06;10404333;28;20053;-50
2023/05/25 18:13:07;;;;;;;5.82;3.60;;;;;;;19.58;51.27;97409.47;10420497;28;20042;-48
2023/05/25 18:18:27;;;;;;;4.47;3.53;;;;;;;19.59;51.59;97412.97;10430071;28;20038;-49
2023/05/25 18:23:46;;;;;;;5.38;3.40;;;;;;;19.59;51.89;97413.78;10414635;28;20045;-50
2023/05/25 18:29:06;;;;;;;7.18;3.33;;;;;;;19.58;52.06;97416.78;10431446;28;20060;-48
2023/05/25 18:34:26;;;;;;;8.07;4.65;;;;;;;19.58;52.15;97422.19;10430848;28;20052;-50
2023/05/25 18:39:45;;;;;;;5.03;3.38;;;;;;;19.58;52.18;97424.88;10410845;28;20604;-48
2023/05/25 18:45:05;;;;;;;7.35;3.80;;;;;;;19.58;52.17;97433.00;10390753;28;20084;-47
2023/05/25 18:50:25;;;;;;;4.70;2.95;;;;;;;19.58;52.22;97430.28;10404265;28;20061;-48
2023/05/25 18:55:44;;;;;;;6.45;3.58;;;;;;;19.56;52.34;97436.00;10429470;28;20041;-50
2023/05/25 19:01:03;;;;;;;5.25;3.33;;;;;;;19.55;52.42;97437.91;10392903;28;20496;-48
2023/05/25 19:06:23;;;;;;;6.03;4.00;;;;;;;19.55;52.27;97440.63;10401420;28;20516;-50
2023/05/25 19:11:42;;;;;;;5.13;3.03;;;;;;;19.55;52.44;97454.13;10410554;28;20069;-47
2023/05/25 19:17:02;;;;;;;3.70;2.17;;;;;;;19.56;52.47;97461.16;10413972;28;20068;-50
2023/05/25 19:22:21;;;;;;;5.28;3.72;;;;;;;19.56;52.54;97465.72;10401746;28;20056;-49
2023/05/25 19:27:41;;;;;;;6.50;3.47;;;;;;;19.54;52.51;97468.75;10413048;28;20057;-46
2023/05/25 19:33:00;;;;;;;4.93;3.40;;;;;;;19.55;52.56;97470.34;10421955;28;20445;-47
2023/05/25 19:38:20;;;;;;;6.18;3.63;;;;;;;19.54;52.58;97471.47;10403590;28;20491;-47
2023/05/25 19:43:39;;;;;;;4.93;3.20;;;;;;;19.54;52.51;97471.47;10391109;28;20045;-50
2023/05/25 19:48:58;;;;;;;4.88;3.75;;;;;;;19.53;52.56;97479.88;10398840;28;20406;-48
2023/05/25 19:54:18;;;;;;;4.25;3.50;;;;;;;19.54;52.59;97476.06;10387906;28;20050;-50
2023/05/25 19:59:37;;;;;;;4.80;3.40;;;;;;;19.53;52.55;97479.88;10404676;28;20088;-50
2023/05/25 20:04:57;;;;;;;3.80;3.50;;;;;;;19.54;52.65;97481.47;10397126;28;20049;-50
2023/05/25 20:10:17;;;;;;;4.90;3.35;;;;;;;19.53;52.83;97486.06;10420765;28;20041;-48
2023/05/25 20:15:36;;;;;;;5.10;3.60;;;;;;;19.53;52.84;97486.06;10415423;28;20037;-49
2023/05/25 20:20:56;;;;;;;5.78;3.30;;;;;;;19.53;52.86;97488.78;10414161;28;20061;-48
2023/05/25 20:26:16;;;;;;;3.92;3.35;;;;;;;19.53;52.94;97494.19;10389764;28;20049;-48
2023/05/25 20:31:35;;;;;;;4.90;3.40;;;;;;;19.53;53.07;97499.59;10400418;28;20041;-50
2023/05/25 20:36:55;;;;;;;4.18;3.30;;;;;;;19.52;52.93;97499.88;10413468;28;20049;-49
2023/05/25 20:42:14;;;;;;;4.78;3.30;;;;;;;19.51;52.95;97507.19;10415372;28;20042;-49
2023/05/25 20:47:37;;;;;;;4.20;3.28;;;;;;;19.51;53.00;97509.91;10420432;28;20048;-47
2023/05/25 20:52:56;;;;;;;6.00;3.60;;;;;;;19.52;52.99;97505.28;10414329;28;20106;-48
2023/05/25 20:58:17;;;;;;;3.20;2.90;;;;;;;19.52;53.08;97510.69;10389014;28;20112;-49
2023/05/25 21:03:38;;;;;;;3.40;3.10;;;;;;;19.52;53.16;97505.28;10399242;28;20038;-47
2023/05/25 21:08:57;;;;;;;3.88;2.90;;;;;;;19.52;53.15;97506.09;10423971;28;20053;-49
2023/05/25 21:14:16;;;;;;;3.47;3.15;;;;;;;19.51;53.29;97511.81;10396641;28;20391;-49
2023/05/25 21:19:36;;;;;;;4.22;3.00;;;;;;;19.50;53.14;97515.59;10389100;28;20042;-49
2023/05/25 21:24:56;;;;;;;3.72;3.15;;;;;;;19.51;53.25;97509.13;10404895;28;20053;-47
2023/05/25 21:30:15;;;;;;;3.72;3.08;;;;;;;19.50;53.19;97519.13;10388791;28;20100;-48
2023/05/25 21:35:35;;;;;;;5.10;3.40;;;;;;;19.49;53.22;97514.81;10412516;28;20418;-46
2023/05/25 21:40:54;;;;;;;6.40;3.97;;;;;;;19.50;53.31;97526.41;10413516;28;20053;-48
2023/05/25 21:46:14;;;;;;;9.25;4.47;;;;;;;19.48;53.30;97529.44;10418829;28;20080;-50
2023/05/25 21:51:33;;;;;;;8.57;4.80;;;;;;;19.48;53.35;97532.16;10422260;28;20041;-46
2023/05/25 21:56:53;;;;;;;9.65;4.47;;;;;;;19.49;53.42;97539.13;10411603;28;20049;-47
2023/05/25 22:02:12;;;;;;;9.90;4.30;;;;;;;19.48;53.41;97542.97;10395549;28;20042;-48
2023/05/25 22:07:32;;;;;;;9.43;4.90;;;;;;;19.48;53.47;97542.97;10405236;28;20099;-47
2023/05/25 22:12:51;;;;;;;10.27;4.40;;;;;;;19.48;53.53;97542.97;10431803;28;20197;-46
2023/05/25 22:18:10;;;;;;;7.38;4.15;;;;;;;19.48;53.45;97553.78;10402644;28;20064;-46
2023/05/25 22:23:30;;;;;;;7.15;4.00;;;;;;;19.47;53.48;97554.06;10431520;28;20444;-47
2023/05/25 22:28:49;;;;;;;8.00;4.22;;;;;;;19.46;53.38;97550.53;10431657;28;20048;-49
2023/05/25 22:34:09;;;;;;;7.65;4.13;;;;;;;19.46;53.45;97557.84;10430831;28;20044;-49
2023/05/25 22:39:28;;;;;;;6.18;3.60;;;;;;;19.46;53.48;97555.94;10400266;28;20054;-48
2023/05/25 22:44:49;;;;;;;8.38;4.28;;;;;;;19.45;53.46;97565.19;10390874;28;20041;-49
2023/05/25 22:50:10;;;;;;;8.18;4.25;;;;;;;19.46;53.44;97565.97;10404404;28;20052;-49
2023/05/25 22:55:31;;;;;;;10.30;5.05;;;;;;;19.45;53.56;97559.78;10417196;28;20041;-50
2023/05/25 23:00:50;;;;;;;9.57;4.88;;;;;;;19.45;53.52;97562.47;10412478;28;20449;-50
2023/05/25 23:06:10;;;;;;;8.23;4.60;;;;;;;19.45;53.64;97562.47;10411078;28;20050;-49
2023/05/25 23:11:29;;;;;;;11.00;5.97;;;;;;;19.44;53.75;97560.84;10428053;28;20033;-49
2023/05/25 23:16:49;;;;;;;8.27;4.68;;;;;;;19.45;54.12;97559.78;10392293;28;20049;-49
2023/05/25 23:22:09;;;;;;;6.93;4.05;;;;;;;19.45;54.25;97561.69;10407408;28;20084;-49
2023/05/25 23:27:29;;;;;;;7.43;4.07;;;;;;;19.44;54.31;97570.88;10413684;28;20053;-48
2023/05/25 23:32:48;;;;;;;8.00;4.03;;;;;;;19.43;54.28;97567.38;10420318;28;20049;-49
2023/05/25 23:38:08;;;;;;;10.70;4.70;;;;;;;19.44;54.31;97571.66;10389047;28;20049;-50
2023/05/25 23:43:28;;;;;;;7.13;3.80;;;;;;;19.44;54.29;97570.88;10394905;28;20045;-45
2023/05/25 23:48:47;;;;;;;7.40;4.10;;;;;;;19.43;54.28;97567.38;10394238;28;20049;-47
2023/05/25 23:54:06;;;;;;;7.55;4.22;;;;;;;19.42;54.19;97565.78;10408526;28;20077;-48
2023/05/25 23:59:25;;;;;;;5.80;4.05;;;;;;;19.42;54.08;97563.06;10424267;28;20508;-49
